sensor_id;sensor_type;location;lat;lon;timestamp;P1;durP1;ratioP1;P2;durP2;ratioP2
10309;SDS011;5200;43.236;27.986;2023-09-12T00:00:08;4.10;;;3.33;;
10309;SDS011;5200;43.236;27.986;2023-09-12T00:02:38;3.67;;;3.10;;
10309;SDS011;5200;43.236;27.986;2023-09-12T00:05:05;9.93;;;3.38;;
10309;SDS011;5200;43.236;27.986;2023-09-12T00:07:32;3.83;;;3.00;;
10309;SDS011;5200;43.236;27.986;2023-09-12T00:09:59;5.93;;;3.00;;
10309;SDS011;5200;43.236;27.986;2023-09-12T00:12:27;3.50;;;3.20;;
10309;SDS011;5200;43.236;27.986;2023-09-12T00:14:54;6.20;;;3.58;;
10309;SDS011;5200;43.236;27.986;2023-09-12T00:17:21;4.38;;;3.40;;
10309;SDS011;5200;43.236;27.986;2023-09-12T00:19:49;6.32;;;3.17;;
10309;SDS011;5200;43.236;27.986;2023-09-12T00:22:16;4.15;;;3.20;;
10309;SDS011;5200;43.236;27.986;2023-09-12T00:24:42;3.78;;;3.10;;
10309;SDS011;5200;43.236;27.986;2023-09-12T00:27:09;4.65;;;3.17;;
10309;SDS011;5200;43.236;27.986;2023-09-12T00:29:36;5.10;;;3.35;;
10309;SDS011;5200;43.236;27.986;2023-09-12T00:32:04;3.55;;;3.15;;
10309;SDS011;5200;43.236;27.986;2023-09-12T00:34:31;3.28;;;2.97;;
10309;SDS011;5200;43.236;27.986;2023-09-12T00:36:59;5.22;;;3.28;;
10309;SDS011;5200;43.236;27.986;2023-09-12T00:39:26;3.35;;;3.05;;
10309;SDS011;5200;43.236;27.986;2023-09-12T00:41:53;3.20;;;2.90;;
10309;SDS011;5200;43.236;27.986;2023-09-12T00:44:20;3.47;;;3.17;;
10309;SDS011;5200;43.236;27.986;2023-09-12T00:46:47;4.35;;;2.90;;
10309;SDS011;5200;43.236;27.986;2023-09-12T00:49:16;5.28;;;3.28;;
10309;SDS011;5200;43.236;27.986;2023-09-12T00:51:43;6.20;;;3.55;;
10309;SDS011;5200;43.236;27.986;2023-09-12T00:54:13;6.38;;;3.20;;
10309;SDS011;5200;43.236;27.986;2023-09-12T00:56:40;4.18;;;3.40;;
10309;SDS011;5200;43.236;27.986;2023-09-12T00:59:08;3.55;;;3.20;;
10309;SDS011;5200;43.236;27.986;2023-09-12T01:01:36;3.83;;;3.03;;
10309;SDS011;5200;43.236;27.986;2023-09-12T01:04:03;3.47;;;3.20;;
10309;SDS011;5200;43.236;27.986;2023-09-12T01:06:31;5.07;;;3.65;;
10309;SDS011;5200;43.236;27.986;2023-09-12T01:09:00;4.55;;;3.03;;
10309;SDS011;5200;43.236;27.986;2023-09-12T01:11:28;3.50;;;3.20;;
10309;SDS011;5200;43.236;27.986;2023-09-12T01:13:56;3.78;;;3.38;;
10309;SDS011;5200;43.236;27.986;2023-09-12T01:16:23;8.48;;;3.03;;
10309;SDS011;5200;43.236;27.986;2023-09-12T01:18:50;3.15;;;2.90;;
10309;SDS011;5200;43.236;27.986;2023-09-12T01:21:23;4.22;;;3.20;;
10309;SDS011;5200;43.236;27.986;2023-09-12T01:27:31;4.03;;;3.42;;
10309;SDS011;5200;43.236;27.986;2023-09-12T01:30:01;3.83;;;3.42;;
10309;SDS011;5200;43.236;27.986;2023-09-12T01:32:31;5.85;;;3.00;;
10309;SDS011;5200;43.236;27.986;2023-09-12T01:34:58;4.53;;;3.20;;
10309;SDS011;5200;43.236;27.986;2023-09-12T01:37:25;3.33;;;3.03;;
10309;SDS011;5200;43.236;27.986;2023-09-12T01:39:52;6.20;;;3.33;;
10309;SDS011;5200;43.236;27.986;2023-09-12T01:42:20;3.70;;;3.33;;
10309;SDS011;5200;43.236;27.986;2023-09-12T01:44:50;3.42;;;3.13;;
10309;SDS011;5200;43.236;27.986;2023-09-12T01:47:20;3.55;;;3.10;;
10309;SDS011;5200;43.236;27.986;2023-09-12T01:49:49;3.58;;;3.22;;
10309;SDS011;5200;43.236;27.986;2023-09-12T01:52:20;5.43;;;4.10;;
10309;SDS011;5200;43.236;27.986;2023-09-12T01:54:48;6.05;;;2.85;;
10309;SDS011;5200;43.236;27.986;2023-09-12T01:57:16;4.97;;;3.30;;
10309;SDS011;5200;43.236;27.986;2023-09-12T01:59:45;4.25;;;3.83;;
10309;SDS011;5200;43.236;27.986;2023-09-12T02:02:14;3.60;;;3.30;;
10309;SDS011;5200;43.236;27.986;2023-09-12T02:04:41;4.63;;;3.63;;
10309;SDS011;5200;43.236;27.986;2023-09-12T02:07:08;4.25;;;3.83;;
10309;SDS011;5200;43.236;27.986;2023-09-12T02:09:35;4.80;;;3.08;;
10309;SDS011;5200;43.236;27.986;2023-09-12T02:12:02;5.40;;;3.47;;
10309;SDS011;5200;43.236;27.986;2023-09-12T02:14:29;3.70;;;3.40;;
10309;SDS011;5200;43.236;27.986;2023-09-12T02:16:56;4.45;;;3.50;;
10309;SDS011;5200;43.236;27.986;2023-09-12T02:19:25;3.75;;;3.20;;
10309;SDS011;5200;43.236;27.986;2023-09-12T02:21:52;4.78;;;3.35;;
10309;SDS011;5200;43.236;27.986;2023-09-12T02:24:18;3.72;;;3.42;;
10309;SDS011;5200;43.236;27.986;2023-09-12T02:26:46;4.78;;;3.33;;
10309;SDS011;5200;43.236;27.986;2023-09-12T02:29:13;3.88;;;3.35;;
10309;SDS011;5200;43.236;27.986;2023-09-12T02:31:40;4.40;;;3.38;;
10309;SDS011;5200;43.236;27.986;2023-09-12T02:34:07;3.75;;;3.45;;
10309;SDS011;5200;43.236;27.986;2023-09-12T02:36:35;4.32;;;2.90;;
10309;SDS011;5200;43.236;27.986;2023-09-12T02:39:02;3.00;;;2.70;;
10309;SDS011;5200;43.236;27.986;2023-09-12T02:41:29;3.35;;;2.95;;
10309;SDS011;5200;43.236;27.986;2023-09-12T02:43:56;3.15;;;2.85;;
10309;SDS011;5200;43.236;27.986;2023-09-12T02:46:24;3.28;;;2.97;;
10309;SDS011;5200;43.236;27.986;2023-09-12T02:48:51;4.30;;;3.28;;
10309;SDS011;5200;43.236;27.986;2023-09-12T02:51:17;3.50;;;2.97;;
10309;SDS011;5200;43.236;27.986;2023-09-12T02:53:46;3.15;;;2.72;;
10309;SDS011;5200;43.236;27.986;2023-09-12T02:56:12;3.17;;;2.88;;
10309;SDS011;5200;43.236;27.986;2023-09-12T02:58:39;4.60;;;2.97;;
10309;SDS011;5200;43.236;27.986;2023-09-12T03:01:06;3.42;;;2.90;;
10309;SDS011;5200;43.236;27.986;2023-09-12T03:03:33;3.42;;;2.92;;
10309;SDS011;5200;43.236;27.986;2023-09-12T03:06:00;4.43;;;3.00;;
10309;SDS011;5200;43.236;27.986;2023-09-12T03:08:29;4.30;;;3.08;;
10309;SDS011;5200;43.236;27.986;2023-09-12T03:10:57;4.03;;;2.80;;
10309;SDS011;5200;43.236;27.986;2023-09-12T03:13:27;3.50;;;3.10;;
10309;SDS011;5200;43.236;27.986;2023-09-12T03:15:54;3.45;;;3.15;;
10309;SDS011;5200;43.236;27.986;2023-09-12T03:18:21;4.05;;;3.15;;
10309;SDS011;5200;43.236;27.986;2023-09-12T03:20:48;4.10;;;3.70;;
10309;SDS011;5200;43.236;27.986;2023-09-12T03:23:15;3.92;;;2.95;;
10309;SDS011;5200;43.236;27.986;2023-09-12T03:25:42;5.30;;;3.20;;
10309;SDS011;5200;43.236;27.986;2023-09-12T03:28:11;3.42;;;3.13;;
10309;SDS011;5200;43.236;27.986;2023-09-12T03:30:38;6.82;;;3.53;;
10309;SDS011;5200;43.236;27.986;2023-09-12T03:33:05;3.60;;;3.08;;
10309;SDS011;5200;43.236;27.986;2023-09-12T03:35:32;4.88;;;3.30;;
10309;SDS011;5200;43.236;27.986;2023-09-12T03:37:59;3.53;;;3.22;;
10309;SDS011;5200;43.236;27.986;2023-09-12T03:40:28;5.78;;;3.42;;
10309;SDS011;5200;43.236;27.986;2023-09-12T03:42:55;6.15;;;3.63;;
10309;SDS011;5200;43.236;27.986;2023-09-12T03:45:23;5.85;;;3.22;;
10309;SDS011;5200;43.236;27.986;2023-09-12T03:47:51;5.03;;;3.20;;
10309;SDS011;5200;43.236;27.986;2023-09-12T03:50:18;3.80;;;3.42;;
10309;SDS011;5200;43.236;27.986;2023-09-12T03:52:44;4.25;;;3.30;;
10309;SDS011;5200;43.236;27.986;2023-09-12T03:55:11;4.53;;;3.47;;
10309;SDS011;5200;43.236;27.986;2023-09-12T03:57:38;3.83;;;3.17;;
10309;SDS011;5200;43.236;27.986;2023-09-12T04:00:05;5.80;;;3.75;;
10309;SDS011;5200;43.236;27.986;2023-09-12T04:02:35;5.72;;;3.28;;
10309;SDS011;5200;43.236;27.986;2023-09-12T04:05:02;4.15;;;3.28;;
10309;SDS011;5200;43.236;27.986;2023-09-12T04:07:29;4.85;;;3.53;;
10309;SDS011;5200;43.236;27.986;2023-09-12T04:09:56;4.70;;;3.33;;
10309;SDS011;5200;43.236;27.986;2023-09-12T04:12:23;4.15;;;3.17;;
10309;SDS011;5200;43.236;27.986;2023-09-12T04:14:50;3.20;;;2.90;;
10309;SDS011;5200;43.236;27.986;2023-09-12T04:17:17;3.72;;;3.20;;
10309;SDS011;5200;43.236;27.986;2023-09-12T04:19:46;6.15;;;3.88;;
10309;SDS011;5200;43.236;27.986;2023-09-12T04:22:13;10.68;;;3.50;;
10309;SDS011;5200;43.236;27.986;2023-09-12T04:24:40;4.40;;;3.38;;
10309;SDS011;5200;43.236;27.986;2023-09-12T04:27:07;10.32;;;3.60;;
10309;SDS011;5200;43.236;27.986;2023-09-12T04:29:34;3.42;;;3.10;;
10309;SDS011;5200;43.236;27.986;2023-09-12T04:32:01;6.30;;;3.22;;
10309;SDS011;5200;43.236;27.986;2023-09-12T04:34:28;4.30;;;3.10;;
10309;SDS011;5200;43.236;27.986;2023-09-12T04:36:57;6.32;;;2.97;;
10309;SDS011;5200;43.236;27.986;2023-09-12T04:39:24;7.78;;;3.00;;
10309;SDS011;5200;43.236;27.986;2023-09-12T04:41:51;6.25;;;3.10;;
10309;SDS011;5200;43.236;27.986;2023-09-12T04:44:18;6.68;;;3.50;;
10309;SDS011;5200;43.236;27.986;2023-09-12T04:46:45;6.45;;;3.47;;
10309;SDS011;5200;43.236;27.986;2023-09-12T04:49:12;6.82;;;3.45;;
10309;SDS011;5200;43.236;27.986;2023-09-12T04:51:39;4.47;;;3.40;;
10309;SDS011;5200;43.236;27.986;2023-09-12T04:56:51;11.13;;;3.30;;
10309;SDS011;5200;43.236;27.986;2023-09-12T04:59:18;6.85;;;3.42;;
10309;SDS011;5200;43.236;27.986;2023-09-12T05:01:45;4.40;;;3.20;;
10309;SDS011;5200;43.236;27.986;2023-09-12T05:04:12;6.38;;;3.13;;
10309;SDS011;5200;43.236;27.986;2023-09-12T05:06:39;8.65;;;3.63;;
10309;SDS011;5200;43.236;27.986;2023-09-12T05:09:06;4.68;;;3.63;;
10309;SDS011;5200;43.236;27.986;2023-09-12T05:11:35;7.65;;;3.28;;
10309;SDS011;5200;43.236;27.986;2023-09-12T05:14:02;3.88;;;2.55;;
10309;SDS011;5200;43.236;27.986;2023-09-12T05:16:29;3.45;;;2.55;;
10309;SDS011;5200;43.236;27.986;2023-09-12T05:18:57;2.90;;;2.35;;
10309;SDS011;5200;43.236;27.986;2023-09-12T05:21:24;3.97;;;2.60;;
10309;SDS011;5200;43.236;27.986;2023-09-12T05:23:51;2.90;;;2.50;;
10309;SDS011;5200;43.236;27.986;2023-09-12T05:26:18;3.88;;;2.60;;
10309;SDS011;5200;43.236;27.986;2023-09-12T05:28:46;3.17;;;2.50;;
10309;SDS011;5200;43.236;27.986;2023-09-12T05:31:13;3.15;;;2.70;;
10309;SDS011;5200;43.236;27.986;2023-09-12T05:33:40;3.38;;;2.60;;
10309;SDS011;5200;43.236;27.986;2023-09-12T05:36:07;3.92;;;2.42;;
10309;SDS011;5200;43.236;27.986;2023-09-12T05:38:34;3.30;;;2.40;;
10309;SDS011;5200;43.236;27.986;2023-09-12T05:41:01;4.82;;;2.40;;
10309;SDS011;5200;43.236;27.986;2023-09-12T05:43:28;3.90;;;2.08;;
10309;SDS011;5200;43.236;27.986;2023-09-12T05:45:56;3.15;;;2.22;;
10309;SDS011;5200;43.236;27.986;2023-09-12T05:48:23;4.97;;;2.60;;
10309;SDS011;5200;43.236;27.986;2023-09-12T05:50:50;3.42;;;2.30;;
10309;SDS011;5200;43.236;27.986;2023-09-12T05:53:17;3.90;;;2.42;;
10309;SDS011;5200;43.236;27.986;2023-09-12T05:55:44;5.47;;;2.55;;
10309;SDS011;5200;43.236;27.986;2023-09-12T05:58:11;5.07;;;2.17;;
10309;SDS011;5200;43.236;27.986;2023-09-12T06:00:38;4.35;;;2.28;;
10309;SDS011;5200;43.236;27.986;2023-09-12T06:03:06;4.25;;;2.42;;
10309;SDS011;5200;43.236;27.986;2023-09-12T06:05:34;2.80;;;2.33;;
10309;SDS011;5200;43.236;27.986;2023-09-12T06:08:01;6.07;;;2.55;;
10309;SDS011;5200;43.236;27.986;2023-09-12T06:10:29;4.03;;;2.75;;
10309;SDS011;5200;43.236;27.986;2023-09-12T06:12:56;5.88;;;2.50;;
10309;SDS011;5200;43.236;27.986;2023-09-12T06:15:22;3.50;;;2.38;;
10309;SDS011;5200;43.236;27.986;2023-09-12T06:17:49;5.57;;;2.10;;
10309;SDS011;5200;43.236;27.986;2023-09-12T06:20:18;6.72;;;2.70;;
10309;SDS011;5200;43.236;27.986;2023-09-12T06:22:44;2.40;;;2.20;;
10309;SDS011;5200;43.236;27.986;2023-09-12T06:25:11;4.13;;;2.40;;
10309;SDS011;5200;43.236;27.986;2023-09-12T06:27:37;2.97;;;2.28;;
10309;SDS011;5200;43.236;27.986;2023-09-12T06:30:05;3.85;;;2.53;;
10309;SDS011;5200;43.236;27.986;2023-09-12T06:32:32;4.82;;;2.30;;
10309;SDS011;5200;43.236;27.986;2023-09-12T06:35:00;2.90;;;2.40;;
10309;SDS011;5200;43.236;27.986;2023-09-12T06:37:28;2.58;;;2.33;;
10309;SDS011;5200;43.236;27.986;2023-09-12T06:39:55;4.05;;;2.38;;
10309;SDS011;5200;43.236;27.986;2023-09-12T06:42:22;4.55;;;2.30;;
10309;SDS011;5200;43.236;27.986;2023-09-12T06:44:49;4.63;;;2.45;;
10309;SDS011;5200;43.236;27.986;2023-09-12T06:47:16;5.30;;;3.13;;
10309;SDS011;5200;43.236;27.986;2023-09-12T06:49:43;3.20;;;2.72;;
10309;SDS011;5200;43.236;27.986;2023-09-12T06:52:10;3.75;;;2.58;;
10309;SDS011;5200;43.236;27.986;2023-09-12T06:54:38;5.22;;;2.70;;
10309;SDS011;5200;43.236;27.986;2023-09-12T06:57:05;4.07;;;2.22;;
10309;SDS011;5200;43.236;27.986;2023-09-12T06:59:32;2.50;;;2.30;;
10309;SDS011;5200;43.236;27.986;2023-09-12T07:01:59;4.30;;;2.33;;
10309;SDS011;5200;43.236;27.986;2023-09-12T07:04:26;5.60;;;2.58;;
10309;SDS011;5200;43.236;27.986;2023-09-12T07:06:53;2.40;;;2.20;;
10309;SDS011;5200;43.236;27.986;2023-09-12T07:09:20;8.32;;;2.60;;
10309;SDS011;5200;43.236;27.986;2023-09-12T07:11:49;5.10;;;2.78;;
10309;SDS011;5200;43.236;27.986;2023-09-12T07:14:16;3.92;;;2.42;;
10309;SDS011;5200;43.236;27.986;2023-09-12T07:16:43;4.32;;;2.88;;
10309;SDS011;5200;43.236;27.986;2023-09-12T07:19:10;3.55;;;2.40;;
10309;SDS011;5200;43.236;27.986;2023-09-12T07:21:36;4.53;;;2.65;;
10309;SDS011;5200;43.236;27.986;2023-09-12T07:24:03;4.15;;;2.60;;
10309;SDS011;5200;43.236;27.986;2023-09-12T07:26:31;4.53;;;2.03;;
10309;SDS011;5200;43.236;27.986;2023-09-12T07:28:59;2.35;;;2.15;;
10309;SDS011;5200;43.236;27.986;2023-09-12T07:31:28;3.45;;;2.30;;
10309;SDS011;5200;43.236;27.986;2023-09-12T07:33:55;3.13;;;2.40;;
10309;SDS011;5200;43.236;27.986;2023-09-12T07:36:21;2.90;;;2.33;;
10309;SDS011;5200;43.236;27.986;2023-09-12T07:38:48;5.45;;;2.42;;
10309;SDS011;5200;43.236;27.986;2023-09-12T07:41:16;4.15;;;2.30;;
10309;SDS011;5200;43.236;27.986;2023-09-12T07:43:44;4.32;;;2.50;;
10309;SDS011;5200;43.236;27.986;2023-09-12T07:46:12;3.47;;;1.95;;
10309;SDS011;5200;43.236;27.986;2023-09-12T07:48:39;2.35;;;2.15;;
10309;SDS011;5200;43.236;27.986;2023-09-12T07:51:15;2.20;;;2.00;;
10309;SDS011;5200;43.236;27.986;2023-09-12T07:53:43;3.85;;;2.53;;
10309;SDS011;5200;43.236;27.986;2023-09-12T07:56:10;2.50;;;2.30;;
10309;SDS011;5200;43.236;27.986;2023-09-12T07:58:37;2.35;;;2.00;;
10309;SDS011;5200;43.236;27.986;2023-09-12T08:01:04;2.60;;;2.30;;
10309;SDS011;5200;43.236;27.986;2023-09-12T08:03:34;3.20;;;2.42;;
10309;SDS011;5200;43.236;27.986;2023-09-12T08:06:01;3.22;;;2.00;;
10309;SDS011;5200;43.236;27.986;2023-09-12T08:08:29;2.80;;;2.10;;
10309;SDS011;5200;43.236;27.986;2023-09-12T08:10:56;2.28;;;2.08;;
10309;SDS011;5200;43.236;27.986;2023-09-12T08:13:25;2.58;;;2.20;;
10309;SDS011;5200;43.236;27.986;2023-09-12T08:15:52;2.30;;;1.80;;
10309;SDS011;5200;43.236;27.986;2023-09-12T08:18:19;3.45;;;1.80;;
10309;SDS011;5200;43.236;27.986;2023-09-12T08:20:48;5.22;;;1.88;;
10309;SDS011;5200;43.236;27.986;2023-09-12T08:23:15;2.10;;;1.90;;
10309;SDS011;5200;43.236;27.986;2023-09-12T08:25:41;4.15;;;2.17;;
10309;SDS011;5200;43.236;27.986;2023-09-12T08:28:08;3.17;;;2.10;;
10309;SDS011;5200;43.236;27.986;2023-09-12T08:30:35;2.42;;;2.15;;
10309;SDS011;5200;43.236;27.986;2023-09-12T08:33:02;2.25;;;2.05;;
10309;SDS011;5200;43.236;27.986;2023-09-12T08:35:30;2.17;;;1.88;;
10309;SDS011;5200;43.236;27.986;2023-09-12T08:37:58;2.55;;;2.30;;
10309;SDS011;5200;43.236;27.986;2023-09-12T08:40:25;2.08;;;1.98;;
10309;SDS011;5200;43.236;27.986;2023-09-12T08:42:52;2.38;;;1.85;;
10309;SDS011;5200;43.236;27.986;2023-09-12T08:45:19;3.40;;;1.98;;
10309;SDS011;5200;43.236;27.986;2023-09-12T08:47:46;4.55;;;2.40;;
10309;SDS011;5200;43.236;27.986;2023-09-12T08:50:16;3.05;;;2.10;;
10309;SDS011;5200;43.236;27.986;2023-09-12T08:52:44;3.50;;;2.10;;
10309;SDS011;5200;43.236;27.986;2023-09-12T08:55:13;2.08;;;1.90;;
10309;SDS011;5200;43.236;27.986;2023-09-12T08:57:41;2.33;;;2.13;;
10309;SDS011;5200;43.236;27.986;2023-09-12T09:00:08;2.28;;;2.08;;
10309;SDS011;5200;43.236;27.986;2023-09-12T09:02:39;3.20;;;2.33;;
10309;SDS011;5200;43.236;27.986;2023-09-12T09:05:08;2.10;;;1.90;;
10309;SDS011;5200;43.236;27.986;2023-09-12T09:07:36;2.10;;;1.92;;
10309;SDS011;5200;43.236;27.986;2023-09-12T09:10:05;1.90;;;1.73;;
10309;SDS011;5200;43.236;27.986;2023-09-12T09:12:35;4.45;;;1.98;;
10309;SDS011;5200;43.236;27.986;2023-09-12T09:17:47;3.25;;;1.90;;
10309;SDS011;5200;43.236;27.986;2023-09-12T09:20:21;3.67;;;1.83;;
10309;SDS011;5200;43.236;27.986;2023-09-12T09:25:31;5.47;;;1.92;;
10309;SDS011;5200;43.236;27.986;2023-09-12T09:28:00;5.70;;;1.70;;
10309;SDS011;5200;43.236;27.986;2023-09-12T09:30:38;3.72;;;2.40;;
10309;SDS011;5200;43.236;27.986;2023-09-12T09:33:07;2.70;;;1.77;;
10309;SDS011;5200;43.236;27.986;2023-09-12T09:35:34;3.33;;;1.67;;
10309;SDS011;5200;43.236;27.986;2023-09-12T09:38:02;5.28;;;1.80;;
10309;SDS011;5200;43.236;27.986;2023-09-12T09:40:31;2.53;;;1.90;;
10309;SDS011;5200;43.236;27.986;2023-09-12T09:43:00;3.85;;;2.13;;
10309;SDS011;5200;43.236;27.986;2023-09-12T09:45:28;1.98;;;1.63;;
10309;SDS011;5200;43.236;27.986;2023-09-12T09:47:56;8.98;;;1.90;;
10309;SDS011;5200;43.236;27.986;2023-09-12T09:50:24;2.70;;;1.50;;
10309;SDS011;5200;43.236;27.986;2023-09-12T09:52:53;2.50;;;1.60;;
10309;SDS011;5200;43.236;27.986;2023-09-12T09:55:21;2.05;;;1.75;;
10309;SDS011;5200;43.236;27.986;2023-09-12T09:57:48;1.73;;;1.60;;
10309;SDS011;5200;43.236;27.986;2023-09-12T10:00:19;1.95;;;1.80;;
10309;SDS011;5200;43.236;27.986;2023-09-12T10:02:48;1.83;;;1.73;;
10309;SDS011;5200;43.236;27.986;2023-09-12T10:05:16;2.00;;;1.75;;
10309;SDS011;5200;43.236;27.986;2023-09-12T10:07:45;1.50;;;1.40;;
10309;SDS011;5200;43.236;27.986;2023-09-12T10:10:15;1.60;;;1.50;;
10309;SDS011;5200;43.236;27.986;2023-09-12T10:12:43;2.95;;;1.90;;
10309;SDS011;5200;43.236;27.986;2023-09-12T10:15:15;1.65;;;1.55;;
10309;SDS011;5200;43.236;27.986;2023-09-12T10:17:55;2.80;;;1.50;;
10309;SDS011;5200;43.236;27.986;2023-09-12T10:20:24;1.95;;;1.73;;
10309;SDS011;5200;43.236;27.986;2023-09-12T10:23:05;1.73;;;1.63;;
10309;SDS011;5200;43.236;27.986;2023-09-12T10:25:36;1.70;;;1.60;;
10309;SDS011;5200;43.236;27.986;2023-09-12T10:28:04;2.17;;;1.88;;
10309;SDS011;5200;43.236;27.986;2023-09-12T10:30:34;1.60;;;1.50;;
10309;SDS011;5200;43.236;27.986;2023-09-12T10:33:05;1.98;;;1.60;;
10309;SDS011;5200;43.236;27.986;2023-09-12T10:35:33;5.22;;;1.95;;
10309;SDS011;5200;43.236;27.986;2023-09-12T10:38:02;2.45;;;1.60;;
10309;SDS011;5200;43.236;27.986;2023-09-12T10:40:31;1.92;;;1.52;;
10309;SDS011;5200;43.236;27.986;2023-09-12T10:43:02;8.38;;;1.85;;
10309;SDS011;5200;43.236;27.986;2023-09-12T10:45:31;1.85;;;1.52;;
10309;SDS011;5200;43.236;27.986;2023-09-12T10:48:00;1.95;;;1.60;;
10309;SDS011;5200;43.236;27.986;2023-09-12T10:50:27;3.95;;;1.63;;
10309;SDS011;5200;43.236;27.986;2023-09-12T10:52:54;2.10;;;1.80;;
10309;SDS011;5200;43.236;27.986;2023-09-12T10:55:21;3.28;;;1.60;;
10309;SDS011;5200;43.236;27.986;2023-09-12T10:58:00;3.00;;;1.85;;
10309;SDS011;5200;43.236;27.986;2023-09-12T11:00:29;9.70;;;1.70;;
10309;SDS011;5200;43.236;27.986;2023-09-12T11:02:57;1.70;;;1.60;;
10309;SDS011;5200;43.236;27.986;2023-09-12T11:05:36;3.40;;;1.77;;
10309;SDS011;5200;43.236;27.986;2023-09-12T11:08:03;4.00;;;1.85;;
10309;SDS011;5200;43.236;27.986;2023-09-12T11:10:31;1.50;;;1.40;;
10309;SDS011;5200;43.236;27.986;2023-09-12T11:12:58;2.70;;;1.70;;
10309;SDS011;5200;43.236;27.986;2023-09-12T11:15:26;3.50;;;1.80;;
10309;SDS011;5200;43.236;27.986;2023-09-12T11:18:01;1.48;;;1.38;;
10309;SDS011;5200;43.236;27.986;2023-09-12T11:20:49;1.63;;;1.52;;
10309;SDS011;5200;43.236;27.986;2023-09-12T11:23:18;1.85;;;1.75;;
10309;SDS011;5200;43.236;27.986;2023-09-12T11:25:46;1.45;;;1.35;;
10309;SDS011;5200;43.236;27.986;2023-09-12T11:28:12;2.85;;;1.65;;
10309;SDS011;5200;43.236;27.986;2023-09-12T11:30:54;3.15;;;2.00;;
10309;SDS011;5200;43.236;27.986;2023-09-12T11:33:25;2.15;;;1.50;;
10309;SDS011;5200;43.236;27.986;2023-09-12T11:35:53;3.03;;;1.70;;
10309;SDS011;5200;43.236;27.986;2023-09-12T11:38:26;1.77;;;1.52;;
10309;SDS011;5200;43.236;27.986;2023-09-12T11:40:54;1.80;;;1.60;;
10309;SDS011;5200;43.236;27.986;2023-09-12T11:43:22;1.70;;;1.60;;
10309;SDS011;5200;43.236;27.986;2023-09-12T11:45:50;2.95;;;1.38;;
10309;SDS011;5200;43.236;27.986;2023-09-12T11:48:17;3.97;;;1.42;;
10309;SDS011;5200;43.236;27.986;2023-09-12T11:50:51;1.58;;;1.48;;
10309;SDS011;5200;43.236;27.986;2023-09-12T11:53:19;4.72;;;1.60;;
10309;SDS011;5200;43.236;27.986;2023-09-12T11:55:51;2.42;;;1.50;;
10309;SDS011;5200;43.236;27.986;2023-09-12T11:58:24;3.22;;;2.58;;
10309;SDS011;5200;43.236;27.986;2023-09-12T12:00:52;2.55;;;2.35;;
10309;SDS011;5200;43.236;27.986;2023-09-12T12:03:21;4.78;;;2.00;;
10309;SDS011;5200;43.236;27.986;2023-09-12T12:05:51;3.28;;;1.90;;
10309;SDS011;5200;43.236;27.986;2023-09-12T12:08:19;1.70;;;1.60;;
10309;SDS011;5200;43.236;27.986;2023-09-12T12:10:49;1.83;;;1.73;;
10309;SDS011;5200;43.236;27.986;2023-09-12T12:13:16;2.42;;;2.20;;
10309;SDS011;5200;43.236;27.986;2023-09-12T12:15:44;2.10;;;1.73;;
10309;SDS011;5200;43.236;27.986;2023-09-12T12:18:10;2.97;;;1.80;;
10309;SDS011;5200;43.236;27.986;2023-09-12T12:20:37;1.73;;;1.63;;
10309;SDS011;5200;43.236;27.986;2023-09-12T12:23:06;1.80;;;1.70;;
10309;SDS011;5200;43.236;27.986;2023-09-12T12:28:21;1.98;;;1.50;;
10309;SDS011;5200;43.236;27.986;2023-09-12T12:30:49;2.03;;;1.80;;
10309;SDS011;5200;43.236;27.986;2023-09-12T12:33:19;6.00;;;1.58;;
10309;SDS011;5200;43.236;27.986;2023-09-12T12:35:46;2.00;;;1.80;;
10309;SDS011;5200;43.236;27.986;2023-09-12T12:38:16;1.90;;;1.70;;
10309;SDS011;5200;43.236;27.986;2023-09-12T12:40:43;1.90;;;1.80;;
10309;SDS011;5200;43.236;27.986;2023-09-12T12:43:15;3.17;;;1.70;;
10309;SDS011;5200;43.236;27.986;2023-09-12T12:45:51;2.38;;;1.60;;
10309;SDS011;5200;43.236;27.986;2023-09-12T12:48:28;1.52;;;1.42;;
10309;SDS011;5200;43.236;27.986;2023-09-12T12:50:56;2.85;;;1.42;;
10309;SDS011;5200;43.236;27.986;2023-09-12T12:53:40;4.63;;;1.65;;
10309;SDS011;5200;43.236;27.986;2023-09-12T12:56:08;3.20;;;1.70;;
10309;SDS011;5200;43.236;27.986;2023-09-12T12:58:39;3.55;;;1.67;;
10309;SDS011;5200;43.236;27.986;2023-09-12T13:01:11;3.05;;;1.50;;
10309;SDS011;5200;43.236;27.986;2023-09-12T13:03:38;1.55;;;1.45;;
10309;SDS011;5200;43.236;27.986;2023-09-12T13:06:04;5.43;;;1.70;;
10309;SDS011;5200;43.236;27.986;2023-09-12T13:08:40;2.83;;;1.90;;
10309;SDS011;5200;43.236;27.986;2023-09-12T13:11:08;2.30;;;1.52;;
10309;SDS011;5200;43.236;27.986;2023-09-12T13:13:36;2.60;;;1.58;;
10309;SDS011;5200;43.236;27.986;2023-09-12T13:16:03;2.45;;;1.50;;
10309;SDS011;5200;43.236;27.986;2023-09-12T13:18:31;1.80;;;1.63;;
10309;SDS011;5200;43.236;27.986;2023-09-12T13:20:58;3.17;;;1.80;;
10309;SDS011;5200;43.236;27.986;2023-09-12T13:23:25;2.13;;;1.80;;
10309;SDS011;5200;43.236;27.986;2023-09-12T13:25:54;2.35;;;1.73;;
10309;SDS011;5200;43.236;27.986;2023-09-12T13:28:21;2.88;;;1.55;;
10309;SDS011;5200;43.236;27.986;2023-09-12T13:30:50;1.65;;;1.55;;
10309;SDS011;5200;43.236;27.986;2023-09-12T13:33:17;2.10;;;1.30;;
10309;SDS011;5200;43.236;27.986;2023-09-12T13:35:44;4.15;;;1.60;;
10309;SDS011;5200;43.236;27.986;2023-09-12T13:38:11;2.08;;;1.70;;
10309;SDS011;5200;43.236;27.986;2023-09-12T13:43:52;2.15;;;1.73;;
10309;SDS011;5200;43.236;27.986;2023-09-12T13:46:18;2.45;;;1.90;;
10309;SDS011;5200;43.236;27.986;2023-09-12T13:48:45;2.58;;;1.73;;
10309;SDS011;5200;43.236;27.986;2023-09-12T13:51:12;3.95;;;1.92;;
10309;SDS011;5200;43.236;27.986;2023-09-12T13:53:39;6.55;;;2.00;;
10309;SDS011;5200;43.236;27.986;2023-09-12T13:56:06;2.20;;;2.00;;
10309;SDS011;5200;43.236;27.986;2023-09-12T13:58:33;2.40;;;1.73;;
10309;SDS011;5200;43.236;27.986;2023-09-12T14:01:01;1.73;;;1.63;;
10309;SDS011;5200;43.236;27.986;2023-09-12T14:03:28;2.30;;;1.88;;
10309;SDS011;5200;43.236;27.986;2023-09-12T14:05:55;1.80;;;1.70;;
10309;SDS011;5200;43.236;27.986;2023-09-12T14:08:25;2.90;;;1.52;;
10309;SDS011;5200;43.236;27.986;2023-09-12T14:10:52;1.75;;;1.65;;
10309;SDS011;5200;43.236;27.986;2023-09-12T14:13:19;1.70;;;1.60;;
10309;SDS011;5200;43.236;27.986;2023-09-12T14:15:46;2.80;;;1.98;;
10309;SDS011;5200;43.236;27.986;2023-09-12T14:18:16;2.17;;;2.00;;
10309;SDS011;5200;43.236;27.986;2023-09-12T14:20:43;2.42;;;2.05;;
10309;SDS011;5200;43.236;27.986;2023-09-12T14:23:12;1.95;;;1.85;;
10309;SDS011;5200;43.236;27.986;2023-09-12T14:25:39;6.05;;;1.90;;
10309;SDS011;5200;43.236;27.986;2023-09-12T14:28:06;3.08;;;2.10;;
10309;SDS011;5200;43.236;27.986;2023-09-12T14:30:39;4.85;;;2.05;;
10309;SDS011;5200;43.236;27.986;2023-09-12T14:33:10;2.42;;;1.98;;
10309;SDS011;5200;43.236;27.986;2023-09-12T14:35:39;1.90;;;1.80;;
10309;SDS011;5200;43.236;27.986;2023-09-12T14:38:07;2.22;;;2.03;;
10309;SDS011;5200;43.236;27.986;2023-09-12T14:40:34;2.10;;;1.90;;
10309;SDS011;5200;43.236;27.986;2023-09-12T14:43:01;2.10;;;2.00;;
10309;SDS011;5200;43.236;27.986;2023-09-12T14:45:28;3.40;;;1.95;;
10309;SDS011;5200;43.236;27.986;2023-09-12T14:47:59;2.17;;;1.98;;
10309;SDS011;5200;43.236;27.986;2023-09-12T14:50:26;1.90;;;1.80;;
10309;SDS011;5200;43.236;27.986;2023-09-12T14:52:55;4.63;;;1.88;;
10309;SDS011;5200;43.236;27.986;2023-09-12T14:55:24;2.15;;;1.95;;
10309;SDS011;5200;43.236;27.986;2023-09-12T14:57:51;3.20;;;2.10;;
10309;SDS011;5200;43.236;27.986;2023-09-12T15:00:22;2.90;;;1.80;;
10309;SDS011;5200;43.236;27.986;2023-09-12T15:02:49;2.47;;;2.13;;
10309;SDS011;5200;43.236;27.986;2023-09-12T15:05:16;3.33;;;2.03;;
10309;SDS011;5200;43.236;27.986;2023-09-12T15:07:43;3.22;;;2.20;;
10309;SDS011;5200;43.236;27.986;2023-09-12T15:10:12;2.40;;;2.20;;